sensor_id;sensor_type;location;lat;lon;timestamp;P1;durP1;ratioP1;P2;durP2;ratioP2
23146;SDS011;11742;53.532;-1.478;2023-07-31T00:00:10;0.70;;;0.40;;
23146;SDS011;11742;53.532;-1.478;2023-07-31T00:02:55;0.50;;;0.40;;
23146;SDS011;11742;53.532;-1.478;2023-07-31T00:05:39;0.40;;;0.40;;
23146;SDS011;11742;53.532;-1.478;2023-07-31T00:08:24;0.40;;;0.40;;
23146;SDS011;11742;53.532;-1.478;2023-07-31T00:11:08;0.60;;;0.50;;
23146;SDS011;11742;53.532;-1.478;2023-07-31T00:13:53;0.60;;;0.60;;
23146;SDS011;11742;53.532;-1.478;2023-07-31T00:16:37;0.63;;;0.30;;
23146;SDS011;11742;53.532;-1.478;2023-07-31T00:19:21;0.43;;;0.43;;
23146;SDS011;11742;53.532;-1.478;2023-07-31T00:22:06;0.60;;;0.60;;
23146;SDS011;11742;53.532;-1.478;2023-07-31T00:24:50;0.82;;;0.82;;
23146;SDS011;11742;53.532;-1.478;2023-07-31T00:27:34;0.60;;;0.60;;
23146;SDS011;11742;53.532;-1.478;2023-07-31T00:30:18;0.60;;;0.60;;
23146;SDS011;11742;53.532;-1.478;2023-07-31T00:33:02;1.10;;;1.00;;
23146;SDS011;11742;53.532;-1.478;2023-07-31T00:35:48;0.80;;;0.80;;
23146;SDS011;11742;53.532;-1.478;2023-07-31T00:38:32;1.00;;;0.98;;
23146;SDS011;11742;53.532;-1.478;2023-07-31T00:41:16;1.35;;;0.85;;
23146;SDS011;11742;53.532;-1.478;2023-07-31T00:44:00;1.02;;;1.02;;
23146;SDS011;11742;53.532;-1.478;2023-07-31T00:46:44;1.05;;;1.00;;
23146;SDS011;11742;53.532;-1.478;2023-07-31T00:49:28;1.60;;;1.00;;
23146;SDS011;11742;53.532;-1.478;2023-07-31T00:52:13;1.45;;;1.20;;
23146;SDS011;11742;53.532;-1.478;2023-07-31T00:54:57;1.40;;;1.30;;
23146;SDS011;11742;53.532;-1.478;2023-07-31T00:57:42;1.30;;;1.20;;
23146;SDS011;11742;53.532;-1.478;2023-07-31T01:00:26;2.40;;;1.35;;
23146;SDS011;11742;53.532;-1.478;2023-07-31T01:03:10;2.97;;;1.33;;
23146;SDS011;11742;53.532;-1.478;2023-07-31T01:12:22;1.15;;;1.05;;
23146;SDS011;11742;53.532;-1.478;2023-07-31T01:15:07;1.73;;;1.50;;
23146;SDS011;11742;53.532;-1.478;2023-07-31T01:17:55;1.70;;;1.40;;
23146;SDS011;11742;53.532;-1.478;2023-07-31T01:20:40;1.10;;;1.10;;
23146;SDS011;11742;53.532;-1.478;2023-07-31T01:26:23;1.00;;;1.00;;
23146;SDS011;11742;53.532;-1.478;2023-07-31T01:32:14;1.15;;;1.08;;
23146;SDS011;11742;53.532;-1.478;2023-07-31T01:34:59;1.13;;;1.13;;
23146;SDS011;11742;53.532;-1.478;2023-07-31T01:37:45;1.35;;;1.00;;
23146;SDS011;11742;53.532;-1.478;2023-07-31T01:40:29;1.15;;;1.15;;
23146;SDS011;11742;53.532;-1.478;2023-07-31T01:43:13;0.73;;;0.73;;
23146;SDS011;11742;53.532;-1.478;2023-07-31T01:45:57;0.88;;;0.88;;
23146;SDS011;11742;53.532;-1.478;2023-07-31T01:48:41;0.90;;;0.90;;
23146;SDS011;11742;53.532;-1.478;2023-07-31T01:51:25;0.93;;;0.93;;
23146;SDS011;11742;53.532;-1.478;2023-07-31T01:54:09;0.98;;;0.98;;
23146;SDS011;11742;53.532;-1.478;2023-07-31T01:56:54;0.77;;;0.77;;
23146;SDS011;11742;53.532;-1.478;2023-07-31T01:59:39;0.93;;;0.93;;
23146;SDS011;11742;53.532;-1.478;2023-07-31T02:02:24;0.73;;;0.68;;
23146;SDS011;11742;53.532;-1.478;2023-07-31T02:05:08;0.90;;;0.90;;
23146;SDS011;11742;53.532;-1.478;2023-07-31T02:07:52;0.80;;;0.80;;
23146;SDS011;11742;53.532;-1.478;2023-07-31T02:10:36;0.93;;;0.90;;
23146;SDS011;11742;53.532;-1.478;2023-07-31T02:13:20;0.90;;;0.90;;
23146;SDS011;11742;53.532;-1.478;2023-07-31T02:16:04;0.73;;;0.73;;
23146;SDS011;11742;53.532;-1.478;2023-07-31T02:18:48;0.80;;;0.80;;
23146;SDS011;11742;53.532;-1.478;2023-07-31T02:21:32;0.70;;;0.70;;
23146;SDS011;11742;53.532;-1.478;2023-07-31T02:24:16;0.75;;;0.75;;
23146;SDS011;11742;53.532;-1.478;2023-07-31T02:27:00;0.90;;;0.90;;
23146;SDS011;11742;53.532;-1.478;2023-07-31T02:29:45;0.95;;;0.95;;
23146;SDS011;11742;53.532;-1.478;2023-07-31T02:32:29;0.90;;;0.90;;
23146;SDS011;11742;53.532;-1.478;2023-07-31T02:35:13;0.80;;;0.80;;
23146;SDS011;11742;53.532;-1.478;2023-07-31T02:37:59;0.93;;;0.93;;
23146;SDS011;11742;53.532;-1.478;2023-07-31T02:40:43;1.67;;;1.30;;
23146;SDS011;11742;53.532;-1.478;2023-07-31T02:43:28;0.93;;;0.93;;
23146;SDS011;11742;53.532;-1.478;2023-07-31T02:46:12;1.60;;;0.90;;
23146;SDS011;11742;53.532;-1.478;2023-07-31T02:48:56;0.80;;;0.80;;
23146;SDS011;11742;53.532;-1.478;2023-07-31T02:51:40;0.70;;;0.70;;
23146;SDS011;11742;53.532;-1.478;2023-07-31T02:54:24;1.35;;;0.90;;
23146;SDS011;11742;53.532;-1.478;2023-07-31T02:57:08;3.00;;;0.85;;
23146;SDS011;11742;53.532;-1.478;2023-07-31T02:59:52;0.70;;;0.70;;
23146;SDS011;11742;53.532;-1.478;2023-07-31T03:02:37;0.82;;;0.60;;
23146;SDS011;11742;53.532;-1.478;2023-07-31T03:05:21;0.60;;;0.60;;
23146;SDS011;11742;53.532;-1.478;2023-07-31T03:08:05;0.60;;;0.60;;
23146;SDS011;11742;53.532;-1.478;2023-07-31T03:10:49;0.55;;;0.55;;
23146;SDS011;11742;53.532;-1.478;2023-07-31T03:13:33;0.63;;;0.60;;
23146;SDS011;11742;53.532;-1.478;2023-07-31T03:16:17;0.60;;;0.60;;
23146;SDS011;11742;53.532;-1.478;2023-07-31T03:19:01;0.43;;;0.43;;
23146;SDS011;11742;53.532;-1.478;2023-07-31T03:21:45;0.50;;;0.50;;
23146;SDS011;11742;53.532;-1.478;2023-07-31T03:24:29;0.75;;;0.55;;
23146;SDS011;11742;53.532;-1.478;2023-07-31T03:27:14;0.52;;;0.52;;
23146;SDS011;11742;53.532;-1.478;2023-07-31T03:29:58;0.45;;;0.43;;
23146;SDS011;11742;53.532;-1.478;2023-07-31T03:32:43;0.50;;;0.50;;
23146;SDS011;11742;53.532;-1.478;2023-07-31T03:35:27;0.47;;;0.47;;
23146;SDS011;11742;53.532;-1.478;2023-07-31T03:38:11;0.98;;;0.52;;
23146;SDS011;11742;53.532;-1.478;2023-07-31T03:40:55;0.40;;;0.40;;
23146;SDS011;11742;53.532;-1.478;2023-07-31T03:43:40;0.40;;;0.40;;
23146;SDS011;11742;53.532;-1.478;2023-07-31T03:46:24;0.43;;;0.43;;
23146;SDS011;11742;53.532;-1.478;2023-07-31T03:49:08;0.60;;;0.60;;
23146;SDS011;11742;53.532;-1.478;2023-07-31T03:51:53;0.43;;;0.43;;
23146;SDS011;11742;53.532;-1.478;2023-07-31T03:54:37;0.77;;;0.50;;
23146;SDS011;11742;53.532;-1.478;2023-07-31T03:57:22;0.50;;;0.50;;
23146;SDS011;11742;53.532;-1.478;2023-07-31T04:00:09;0.57;;;0.57;;
23146;SDS011;11742;53.532;-1.478;2023-07-31T04:02:53;0.50;;;0.50;;
23146;SDS011;11742;53.532;-1.478;2023-07-31T04:05:38;1.30;;;0.60;;
23146;SDS011;11742;53.532;-1.478;2023-07-31T04:08:23;0.50;;;0.50;;
23146;SDS011;11742;53.532;-1.478;2023-07-31T04:11:08;0.47;;;0.47;;
23146;SDS011;11742;53.532;-1.478;2023-07-31T04:13:52;0.40;;;0.40;;
23146;SDS011;11742;53.532;-1.478;2023-07-31T04:16:36;0.40;;;0.40;;
23146;SDS011;11742;53.532;-1.478;2023-07-31T04:19:20;2.05;;;0.40;;
23146;SDS011;11742;53.532;-1.478;2023-07-31T04:22:04;0.43;;;0.43;;
23146;SDS011;11742;53.532;-1.478;2023-07-31T04:24:49;0.60;;;0.60;;
23146;SDS011;11742;53.532;-1.478;2023-07-31T04:27:33;1.08;;;0.50;;
23146;SDS011;11742;53.532;-1.478;2023-07-31T04:30:17;0.40;;;0.40;;
23146;SDS011;11742;53.532;-1.478;2023-07-31T04:33:01;0.50;;;0.50;;
23146;SDS011;11742;53.532;-1.478;2023-07-31T04:35:50;0.60;;;0.60;;
23146;SDS011;11742;53.532;-1.478;2023-07-31T04:38:37;0.45;;;0.45;;
23146;SDS011;11742;53.532;-1.478;2023-07-31T04:41:21;0.50;;;0.50;;
23146;SDS011;11742;53.532;-1.478;2023-07-31T04:44:06;0.52;;;0.52;;
23146;SDS011;11742;53.532;-1.478;2023-07-31T04:46:50;0.70;;;0.70;;
23146;SDS011;11742;53.532;-1.478;2023-07-31T04:49:34;0.50;;;0.50;;
23146;SDS011;11742;53.532;-1.478;2023-07-31T04:52:18;0.50;;;0.50;;
23146;SDS011;11742;53.532;-1.478;2023-07-31T04:55:02;0.55;;;0.55;;
23146;SDS011;11742;53.532;-1.478;2023-07-31T04:57:46;1.25;;;0.77;;
23146;SDS011;11742;53.532;-1.478;2023-07-31T05:00:31;0.70;;;0.70;;
23146;SDS011;11742;53.532;-1.478;2023-07-31T05:03:15;0.70;;;0.70;;
23146;SDS011;11742;53.532;-1.478;2023-07-31T05:05:59;0.80;;;0.80;;
23146;SDS011;11742;53.532;-1.478;2023-07-31T05:08:43;0.63;;;0.63;;
23146;SDS011;11742;53.532;-1.478;2023-07-31T05:11:28;0.70;;;0.70;;
23146;SDS011;11742;53.532;-1.478;2023-07-31T05:14:12;0.73;;;0.73;;
23146;SDS011;11742;53.532;-1.478;2023-07-31T05:16:56;0.60;;;0.60;;
23146;SDS011;11742;53.532;-1.478;2023-07-31T05:19:41;0.60;;;0.60;;
23146;SDS011;11742;53.532;-1.478;2023-07-31T05:22:25;0.60;;;0.60;;
23146;SDS011;11742;53.532;-1.478;2023-07-31T05:25:09;0.77;;;0.77;;
23146;SDS011;11742;53.532;-1.478;2023-07-31T05:27:53;0.70;;;0.70;;
23146;SDS011;11742;53.532;-1.478;2023-07-31T05:30:38;1.15;;;0.80;;
23146;SDS011;11742;53.532;-1.478;2023-07-31T05:33:22;0.60;;;0.60;;
23146;SDS011;11742;53.532;-1.478;2023-07-31T05:36:06;0.52;;;0.52;;
23146;SDS011;11742;53.532;-1.478;2023-07-31T05:38:50;0.73;;;0.73;;
23146;SDS011;11742;53.532;-1.478;2023-07-31T05:41:35;0.77;;;0.77;;
23146;SDS011;11742;53.532;-1.478;2023-07-31T05:44:19;0.77;;;0.77;;
23146;SDS011;11742;53.532;-1.478;2023-07-31T05:47:03;0.70;;;0.70;;
23146;SDS011;11742;53.532;-1.478;2023-07-31T05:49:48;0.63;;;0.60;;
23146;SDS011;11742;53.532;-1.478;2023-07-31T05:52:35;0.80;;;0.80;;
23146;SDS011;11742;53.532;-1.478;2023-07-31T05:55:19;0.73;;;0.70;;
23146;SDS011;11742;53.532;-1.478;2023-07-31T05:58:04;0.95;;;0.95;;
23146;SDS011;11742;53.532;-1.478;2023-07-31T06:00:48;0.70;;;0.70;;
23146;SDS011;11742;53.532;-1.478;2023-07-31T06:03:33;0.90;;;0.90;;
23146;SDS011;11742;53.532;-1.478;2023-07-31T06:06:17;1.00;;;0.95;;
23146;SDS011;11742;53.532;-1.478;2023-07-31T06:09:02;0.98;;;0.98;;
23146;SDS011;11742;53.532;-1.478;2023-07-31T06:11:47;1.00;;;1.00;;
23146;SDS011;11742;53.532;-1.478;2023-07-31T06:14:32;1.20;;;1.10;;
23146;SDS011;11742;53.532;-1.478;2023-07-31T06:17:16;1.00;;;0.90;;
23146;SDS011;11742;53.532;-1.478;2023-07-31T06:20:00;0.90;;;0.90;;
23146;SDS011;11742;53.532;-1.478;2023-07-31T06:22:44;0.90;;;0.80;;
23146;SDS011;11742;53.532;-1.478;2023-07-31T06:25:28;0.98;;;0.98;;
23146;SDS011;11742;53.532;-1.478;2023-07-31T06:28:13;0.90;;;0.90;;
23146;SDS011;11742;53.532;-1.478;2023-07-31T06:30:58;0.88;;;0.88;;
23146;SDS011;11742;53.532;-1.478;2023-07-31T06:33:42;0.90;;;0.90;;
23146;SDS011;11742;53.532;-1.478;2023-07-31T06:36:26;0.70;;;0.70;;
23146;SDS011;11742;53.532;-1.478;2023-07-31T06:39:10;0.98;;;0.93;;
23146;SDS011;11742;53.532;-1.478;2023-07-31T06:41:54;0.80;;;0.80;;
23146;SDS011;11742;53.532;-1.478;2023-07-31T06:44:38;0.90;;;0.90;;
23146;SDS011;11742;53.532;-1.478;2023-07-31T06:47:22;0.70;;;0.70;;
23146;SDS011;11742;53.532;-1.478;2023-07-31T06:50:07;0.82;;;0.82;;
23146;SDS011;11742;53.532;-1.478;2023-07-31T06:52:52;0.70;;;0.70;;
23146;SDS011;11742;53.532;-1.478;2023-07-31T06:55:36;1.00;;;0.90;;
23146;SDS011;11742;53.532;-1.478;2023-07-31T06:58:20;0.80;;;0.80;;
23146;SDS011;11742;53.532;-1.478;2023-07-31T07:01:05;0.75;;;0.75;;
23146;SDS011;11742;53.532;-1.478;2023-07-31T07:03:49;0.80;;;0.80;;
23146;SDS011;11742;53.532;-1.478;2023-07-31T07:06:34;0.82;;;0.80;;
23146;SDS011;11742;53.532;-1.478;2023-07-31T07:09:18;0.73;;;0.73;;
23146;SDS011;11742;53.532;-1.478;2023-07-31T07:12:03;0.70;;;0.70;;
23146;SDS011;11742;53.532;-1.478;2023-07-31T07:14:48;0.95;;;0.73;;
23146;SDS011;11742;53.532;-1.478;2023-07-31T07:17:32;0.65;;;0.60;;
23146;SDS011;11742;53.532;-1.478;2023-07-31T07:20:17;0.90;;;0.68;;
23146;SDS011;11742;53.532;-1.478;2023-07-31T07:23:03;0.50;;;0.50;;
23146;SDS011;11742;53.532;-1.478;2023-07-31T07:25:47;1.20;;;0.60;;
23146;SDS011;11742;53.532;-1.478;2023-07-31T07:28:31;0.65;;;0.60;;
23146;SDS011;11742;53.532;-1.478;2023-07-31T07:31:15;0.50;;;0.50;;
23146;SDS011;11742;53.532;-1.478;2023-07-31T07:33:59;0.60;;;0.60;;
23146;SDS011;11742;53.532;-1.478;2023-07-31T07:36:44;1.13;;;0.73;;
23146;SDS011;11742;53.532;-1.478;2023-07-31T07:39:29;0.70;;;0.70;;
23146;SDS011;11742;53.532;-1.478;2023-07-31T07:42:13;0.60;;;0.60;;
23146;SDS011;11742;53.532;-1.478;2023-07-31T07:44:57;0.50;;;0.50;;
23146;SDS011;11742;53.532;-1.478;2023-07-31T07:47:42;0.70;;;0.70;;
23146;SDS011;11742;53.532;-1.478;2023-07-31T07:50:27;0.80;;;0.70;;
23146;SDS011;11742;53.532;-1.478;2023-07-31T07:53:11;0.60;;;0.60;;
23146;SDS011;11742;53.532;-1.478;2023-07-31T07:55:55;0.70;;;0.70;;
23146;SDS011;11742;53.532;-1.478;2023-07-31T07:58:39;1.30;;;0.90;;
23146;SDS011;11742;53.532;-1.478;2023-07-31T08:01:24;1.13;;;0.80;;
23146;SDS011;11742;53.532;-1.478;2023-07-31T08:04:08;0.80;;;0.70;;
23146;SDS011;11742;53.532;-1.478;2023-07-31T08:06:52;0.63;;;0.60;;
23146;SDS011;11742;53.532;-1.478;2023-07-31T08:09:36;0.77;;;0.60;;
23146;SDS011;11742;53.532;-1.478;2023-07-31T08:12:20;0.73;;;0.73;;
23146;SDS011;11742;53.532;-1.478;2023-07-31T08:15:04;0.90;;;0.75;;
23146;SDS011;11742;53.532;-1.478;2023-07-31T08:17:49;0.73;;;0.50;;
23146;SDS011;11742;53.532;-1.478;2023-07-31T08:20:33;1.13;;;0.77;;
23146;SDS011;11742;53.532;-1.478;2023-07-31T08:23:17;0.65;;;0.65;;
23146;SDS011;11742;53.532;-1.478;2023-07-31T08:26:01;1.60;;;0.85;;
23146;SDS011;11742;53.532;-1.478;2023-07-31T08:28:46;7.50;;;1.77;;
23146;SDS011;11742;53.532;-1.478;2023-07-31T08:31:30;26.92;;;2.20;;
23146;SDS011;11742;53.532;-1.478;2023-07-31T08:34:15;1.75;;;1.10;;
23146;SDS011;11742;53.532;-1.478;2023-07-31T08:36:59;1.33;;;0.88;;
23146;SDS011;11742;53.532;-1.478;2023-07-31T08:39:43;1.85;;;1.02;;
23146;SDS011;11742;53.532;-1.478;2023-07-31T08:42:27;2.65;;;0.85;;
23146;SDS011;11742;53.532;-1.478;2023-07-31T08:45:15;1.05;;;0.80;;
23146;SDS011;11742;53.532;-1.478;2023-07-31T08:48:00;0.85;;;0.80;;
23146;SDS011;11742;53.532;-1.478;2023-07-31T08:50:45;1.05;;;0.80;;
23146;SDS011;11742;53.532;-1.478;2023-07-31T08:53:30;1.13;;;1.00;;
23146;SDS011;11742;53.532;-1.478;2023-07-31T08:56:14;2.38;;;1.10;;
23146;SDS011;11742;53.532;-1.478;2023-07-31T08:59:01;1.60;;;1.40;;
23146;SDS011;11742;53.532;-1.478;2023-07-31T09:01:49;2.88;;;1.33;;
23146;SDS011;11742;53.532;-1.478;2023-07-31T09:04:36;2.75;;;1.48;;
23146;SDS011;11742;53.532;-1.478;2023-07-31T09:07:21;2.30;;;1.65;;
23146;SDS011;11742;53.532;-1.478;2023-07-31T09:10:05;2.95;;;1.30;;
23146;SDS011;11742;53.532;-1.478;2023-07-31T09:12:51;2.92;;;1.77;;
23146;SDS011;11742;53.532;-1.478;2023-07-31T09:15:36;3.80;;;2.00;;
23146;SDS011;11742;53.532;-1.478;2023-07-31T09:18:21;3.13;;;1.75;;
23146;SDS011;11742;53.532;-1.478;2023-07-31T09:21:06;3.63;;;2.00;;
23146;SDS011;11742;53.532;-1.478;2023-07-31T09:23:51;3.17;;;1.75;;
23146;SDS011;11742;53.532;-1.478;2023-07-31T09:26:37;3.70;;;2.15;;
23146;SDS011;11742;53.532;-1.478;2023-07-31T09:29:22;11.63;;;2.78;;
23146;SDS011;11742;53.532;-1.478;2023-07-31T09:32:09;4.30;;;1.92;;
23146;SDS011;11742;53.532;-1.478;2023-07-31T09:35:00;5.15;;;2.40;;
23146;SDS011;11742;53.532;-1.478;2023-07-31T09:37:47;4.03;;;1.90;;
23146;SDS011;11742;53.532;-1.478;2023-07-31T09:40:34;3.95;;;2.20;;
23146;SDS011;11742;53.532;-1.478;2023-07-31T09:43:23;3.47;;;1.98;;
23146;SDS011;11742;53.532;-1.478;2023-07-31T09:46:12;3.95;;;1.95;;
23146;SDS011;11742;53.532;-1.478;2023-07-31T09:49:04;6.72;;;1.73;;
23146;SDS011;11742;53.532;-1.478;2023-07-31T09:51:55;4.93;;;1.42;;
23146;SDS011;11742;53.532;-1.478;2023-07-31T09:54:39;3.22;;;1.70;;
23146;SDS011;11742;53.532;-1.478;2023-07-31T09:57:23;3.03;;;1.67;;
23146;SDS011;11742;53.532;-1.478;2023-07-31T10:00:10;2.78;;;1.55;;
23146;SDS011;11742;53.532;-1.478;2023-07-31T10:02:55;4.93;;;1.70;;
23146;SDS011;11742;53.532;-1.478;2023-07-31T10:05:45;3.05;;;1.92;;
23146;SDS011;11742;53.532;-1.478;2023-07-31T10:08:33;3.28;;;1.65;;
23146;SDS011;11742;53.532;-1.478;2023-07-31T10:11:20;2.03;;;1.40;;
23146;SDS011;11742;53.532;-1.478;2023-07-31T10:14:07;4.45;;;2.22;;
23146;SDS011;11742;53.532;-1.478;2023-07-31T10:16:53;6.72;;;1.55;;
23146;SDS011;11742;53.532;-1.478;2023-07-31T10:19:37;5.80;;;1.92;;
23146;SDS011;11742;53.532;-1.478;2023-07-31T10:22:23;2.55;;;1.38;;
23146;SDS011;11742;53.532;-1.478;2023-07-31T10:25:08;3.47;;;1.58;;
23146;SDS011;11742;53.532;-1.478;2023-07-31T10:27:53;3.17;;;1.30;;
23146;SDS011;11742;53.532;-1.478;2023-07-31T10:30:38;2.83;;;1.45;;
23146;SDS011;11742;53.532;-1.478;2023-07-31T10:33:23;10.65;;;2.00;;
23146;SDS011;11742;53.532;-1.478;2023-07-31T10:39:02;3.15;;;1.58;;
23146;SDS011;11742;53.532;-1.478;2023-07-31T10:41:48;3.88;;;1.67;;
23146;SDS011;11742;53.532;-1.478;2023-07-31T10:44:32;3.35;;;1.45;;
23146;SDS011;11742;53.532;-1.478;2023-07-31T10:47:18;5.18;;;1.48;;
23146;SDS011;11742;53.532;-1.478;2023-07-31T10:52:58;2.17;;;1.70;;
23146;SDS011;11742;53.532;-1.478;2023-07-31T10:55:44;3.80;;;2.53;;
23146;SDS011;11742;53.532;-1.478;2023-07-31T10:58:29;6.50;;;2.20;;
23146;SDS011;11742;53.532;-1.478;2023-07-31T11:01:18;6.18;;;2.92;;
23146;SDS011;11742;53.532;-1.478;2023-07-31T11:04:07;8.57;;;3.85;;
23146;SDS011;11742;53.532;-1.478;2023-07-31T11:06:58;7.10;;;4.57;;
23146;SDS011;11742;53.532;-1.478;2023-07-31T11:09:43;11.95;;;5.07;;
23146;SDS011;11742;53.532;-1.478;2023-07-31T11:12:29;14.75;;;5.80;;
23146;SDS011;11742;53.532;-1.478;2023-07-31T11:15:14;8.60;;;5.65;;
23146;SDS011;11742;53.532;-1.478;2023-07-31T11:18:02;10.68;;;3.95;;
23146;SDS011;11742;53.532;-1.478;2023-07-31T11:20:48;5.75;;;3.63;;
23146;SDS011;11742;53.532;-1.478;2023-07-31T11:23:32;2.70;;;2.33;;
23146;SDS011;11742;53.532;-1.478;2023-07-31T11:26:17;3.15;;;2.13;;
23146;SDS011;11742;53.532;-1.478;2023-07-31T11:29:02;7.03;;;2.40;;
23146;SDS011;11742;53.532;-1.478;2023-07-31T11:31:54;4.07;;;1.80;;
23146;SDS011;11742;53.532;-1.478;2023-07-31T11:34:51;4.60;;;1.88;;
23146;SDS011;11742;53.532;-1.478;2023-07-31T11:37:40;4.90;;;1.65;;
23146;SDS011;11742;53.532;-1.478;2023-07-31T11:40:25;3.28;;;1.90;;
23146;SDS011;11742;53.532;-1.478;2023-07-31T11:43:13;3.65;;;1.60;;
23146;SDS011;11742;53.532;-1.478;2023-07-31T11:46:02;5.07;;;1.42;;
23146;SDS011;11742;53.532;-1.478;2023-07-31T11:48:46;2.75;;;1.33;;
23146;SDS011;11742;53.532;-1.478;2023-07-31T11:51:32;3.45;;;1.20;;
23146;SDS011;11742;53.532;-1.478;2023-07-31T11:54:16;2.28;;;1.05;;
23146;SDS011;11742;53.532;-1.478;2023-07-31T11:57:01;3.58;;;1.58;;
23146;SDS011;11742;53.532;-1.478;2023-07-31T11:59:46;6.80;;;1.70;;
23146;SDS011;11742;53.532;-1.478;2023-07-31T12:02:30;8.35;;;1.30;;
23146;SDS011;11742;53.532;-1.478;2023-07-31T12:05:15;7.43;;;1.10;;
23146;SDS011;11742;53.532;-1.478;2023-07-31T12:07:59;2.40;;;1.05;;
23146;SDS011;11742;53.532;-1.478;2023-07-31T12:10:44;4.25;;;1.40;;
23146;SDS011;11742;53.532;-1.478;2023-07-31T12:13:30;40.60;;;2.40;;
23146;SDS011;11742;53.532;-1.478;2023-07-31T12:16:15;22.33;;;2.13;;
23146;SDS011;11742;53.532;-1.478;2023-07-31T12:18:59;13.88;;;2.13;;
23146;SDS011;11742;53.532;-1.478;2023-07-31T12:21:44;17.98;;;2.15;;
23146;SDS011;11742;53.532;-1.478;2023-07-31T12:24:28;13.35;;;2.30;;
23146;SDS011;11742;53.532;-1.478;2023-07-31T12:27:13;4.30;;;1.85;;
23146;SDS011;11742;53.532;-1.478;2023-07-31T12:29:59;7.07;;;1.50;;
23146;SDS011;11742;53.532;-1.478;2023-07-31T12:32:43;12.52;;;1.95;;
23146;SDS011;11742;53.532;-1.478;2023-07-31T12:35:34;9.35;;;1.23;;
23146;SDS011;11742;53.532;-1.478;2023-07-31T12:38:20;6.72;;;1.45;;
23146;SDS011;11742;53.532;-1.478;2023-07-31T12:41:04;2.15;;;1.08;;
23146;SDS011;11742;53.532;-1.478;2023-07-31T12:43:50;1.90;;;0.98;;
23146;SDS011;11742;53.532;-1.478;2023-07-31T12:46:34;2.55;;;1.15;;
23146;SDS011;11742;53.532;-1.478;2023-07-31T12:49:18;7.03;;;1.65;;
23146;SDS011;11742;53.532;-1.478;2023-07-31T12:52:03;17.08;;;2.13;;
23146;SDS011;11742;53.532;-1.478;2023-07-31T12:54:48;15.35;;;1.92;;
23146;SDS011;11742;53.532;-1.478;2023-07-31T12:57:32;16.00;;;2.05;;
23146;SDS011;11742;53.532;-1.478;2023-07-31T13:00:16;17.75;;;1.90;;
23146;SDS011;11742;53.532;-1.478;2023-07-31T13:03:00;6.28;;;1.40;;
23146;SDS011;11742;53.532;-1.478;2023-07-31T13:05:45;9.82;;;1.58;;
23146;SDS011;11742;53.532;-1.478;2023-07-31T13:08:29;10.43;;;1.52;;
23146;SDS011;11742;53.532;-1.478;2023-07-31T13:11:13;5.68;;;1.15;;
23146;SDS011;11742;53.532;-1.478;2023-07-31T13:13:57;7.10;;;1.25;;
23146;SDS011;11742;53.532;-1.478;2023-07-31T13:16:41;6.57;;;1.30;;
23146;SDS011;11742;53.532;-1.478;2023-07-31T13:19:25;3.80;;;1.00;;
23146;SDS011;11742;53.532;-1.478;2023-07-31T13:22:10;2.47;;;1.20;;
23146;SDS011;11742;53.532;-1.478;2023-07-31T13:24:54;3.05;;;0.90;;
23146;SDS011;11742;53.532;-1.478;2023-07-31T13:27:38;6.97;;;1.45;;
23146;SDS011;11742;53.532;-1.478;2023-07-31T13:30:22;2.53;;;1.10;;
23146;SDS011;11742;53.532;-1.478;2023-07-31T13:33:06;2.20;;;1.15;;
23146;SDS011;11742;53.532;-1.478;2023-07-31T13:35:50;4.00;;;1.15;;
23146;SDS011;11742;53.532;-1.478;2023-07-31T13:38:34;3.53;;;1.30;;
23146;SDS011;11742;53.532;-1.478;2023-07-31T13:41:19;31.08;;;2.20;;
23146;SDS011;11742;53.532;-1.478;2023-07-31T13:44:03;18.17;;;2.22;;
23146;SDS011;11742;53.532;-1.478;2023-07-31T13:46:47;40.25;;;2.70;;
23146;SDS011;11742;53.532;-1.478;2023-07-31T13:49:31;15.52;;;2.80;;
23146;SDS011;11742;53.532;-1.478;2023-07-31T13:52:16;13.23;;;2.05;;
23146;SDS011;11742;53.532;-1.478;2023-07-31T13:55:00;30.15;;;2.83;;
23146;SDS011;11742;53.532;-1.478;2023-07-31T13:57:44;17.80;;;3.05;;
23146;SDS011;11742;53.532;-1.478;2023-07-31T14:00:29;12.15;;;1.70;;
23146;SDS011;11742;53.532;-1.478;2023-07-31T14:03:13;11.75;;;2.10;;
23146;SDS011;11742;53.532;-1.478;2023-07-31T14:05:57;14.85;;;1.55;;
23146;SDS011;11742;53.532;-1.478;2023-07-31T14:08:41;9.23;;;1.50;;
23146;SDS011;11742;53.532;-1.478;2023-07-31T14:11:26;8.45;;;1.95;;
23146;SDS011;11742;53.532;-1.478;2023-07-31T14:14:11;18.60;;;2.08;;
23146;SDS011;11742;53.532;-1.478;2023-07-31T14:16:56;16.67;;;1.50;;
23146;SDS011;11742;53.532;-1.478;2023-07-31T14:19:40;28.20;;;1.88;;
23146;SDS011;11742;53.532;-1.478;2023-07-31T14:22:28;12.13;;;1.90;;
23146;SDS011;11742;53.532;-1.478;2023-07-31T14:25:13;16.65;;;2.38;;
23146;SDS011;11742;53.532;-1.478;2023-07-31T14:27:57;14.68;;;2.15;;
23146;SDS011;11742;53.532;-1.478;2023-07-31T14:30:41;8.90;;;1.67;;
23146;SDS011;11742;53.532;-1.478;2023-07-31T14:33:26;22.38;;;3.35;;
23146;SDS011;11742;53.532;-1.478;2023-07-31T14:36:10;14.73;;;2.78;;
23146;SDS011;11742;53.532;-1.478;2023-07-31T14:38:54;13.10;;;2.78;;
23146;SDS011;11742;53.532;-1.478;2023-07-31T14:41:38;8.77;;;1.85;;
23146;SDS011;11742;53.532;-1.478;2023-07-31T14:44:22;11.23;;;2.20;;
23146;SDS011;11742;53.532;-1.478;2023-07-31T14:47:07;10.07;;;2.25;;
23146;SDS011;11742;53.532;-1.478;2023-07-31T14:49:51;8.80;;;1.88;;
23146;SDS011;11742;53.532;-1.478;2023-07-31T14:52:35;13.55;;;1.70;;
23146;SDS011;11742;53.532;-1.478;2023-07-31T14:55:19;4.63;;;1.40;;
23146;SDS011;11742;53.532;-1.478;2023-07-31T14:58:03;5.95;;;1.77;;
23146;SDS011;11742;53.532;-1.478;2023-07-31T15:00:47;4.05;;;1.67;;
23146;SDS011;11742;53.532;-1.478;2023-07-31T15:03:32;21.13;;;2.25;;
23146;SDS011;11742;53.532;-1.478;2023-07-31T15:06:16;9.55;;;2.78;;
23146;SDS011;11742;53.532;-1.478;2023-07-31T15:09:00;11.82;;;1.77;;
23146;SDS011;11742;53.532;-1.478;2023-07-31T15:11:45;8.00;;;1.70;;
23146;SDS011;11742;53.532;-1.478;2023-07-31T15:14:29;3.30;;;1.42;;
23146;SDS011;11742;53.532;-1.478;2023-07-31T15:17:14;2.47;;;1.45;;
23146;SDS011;11742;53.532;-1.478;2023-07-31T15:19:59;4.47;;;1.35;;
23146;SDS011;11742;53.532;-1.478;2023-07-31T15:22:43;3.83;;;1.48;;
23146;SDS011;11742;53.532;-1.478;2023-07-31T15:25:28;2.08;;;1.10;;
23146;SDS011;11742;53.532;-1.478;2023-07-31T15:28:12;4.35;;;1.30;;
23146;SDS011;11742;53.532;-1.478;2023-07-31T15:30:56;4.05;;;1.02;;
23146;SDS011;11742;53.532;-1.478;2023-07-31T15:33:41;2.00;;;1.17;;
23146;SDS011;11742;53.532;-1.478;2023-07-31T15:36:25;1.98;;;1.30;;
23146;SDS011;11742;53.532;-1.478;2023-07-31T15:39:09;2.70;;;1.27;;
23146;SDS011;11742;53.532;-1.478;2023-07-31T15:41:54;1.65;;;1.25;;
23146;SDS011;11742;53.532;-1.478;2023-07-31T15:44:38;4.95;;;1.27;;
23146;SDS011;11742;53.532;-1.478;2023-07-31T15:47:23;1.42;;;1.00;;
23146;SDS011;11742;53.532;-1.478;2023-07-31T15:50:07;2.72;;;1.00;;
23146;SDS011;11742;53.532;-1.478;2023-07-31T15:52:51;2.78;;;0.80;;
23146;SDS011;11742;53.532;-1.478;2023-07-31T15:55:35;1.63;;;1.08;;
23146;SDS011;11742;53.532;-1.478;2023-07-31T15:58:20;1.10;;;0.70;;
23146;SDS011;11742;53.532;-1.478;2023-07-31T16:01:04;0.93;;;0.75;;
23146;SDS011;11742;53.532;-1.478;2023-07-31T16:03:48;1.67;;;0.70;;
23146;SDS011;11742;53.532;-1.478;2023-07-31T16:06:33;1.60;;;0.98;;
23146;SDS011;11742;53.532;-1.478;2023-07-31T16:09:17;0.98;;;0.60;;
23146;SDS011;11742;53.532;-1.478;2023-07-31T16:12:02;2.40;;;0.98;;
23146;SDS011;11742;53.532;-1.478;2023-07-31T16:14:46;0.60;;;0.60;;
23146;SDS011;11742;53.532;-1.478;2023-07-31T16:17:30;0.70;;;0.60;;
23146;SDS011;11742;53.532;-1.478;2023-07-31T16:20:14;0.98;;;0.65;;
23146;SDS011;11742;53.532;-1.478;2023-07-31T16:22:59;0.60;;;0.60;;
23146;SDS011;11742;53.532;-1.478;2023-07-31T16:25:43;0.60;;;0.60;;
23146;SDS011;11742;53.532;-1.478;2023-07-31T16:28:28;1.83;;;0.85;;
23146;SDS011;11742;53.532;-1.478;2023-07-31T16:31:12;1.13;;;0.70;;
23146;SDS011;11742;53.532;-1.478;2023-07-31T16:33:56;0.68;;;0.60;;